Explorer — DHRP — position and weather

sailwx.info

Track history (hours):
 
Tides and Currents Weather Stations Pressure Air Temp Water Temp Dewpoint Dewpoint Depression Visibility Wind Speed Wind Dir Waves Ship Positions

Explorer

Last reported at 2016-Jun-27 16:31 UTC. Time now 2016-Jun-27 16:51 UTC.
Position N 37°42' E 023°28'.

Length 41 m; draft 3 m.

Type: Pleasure craft. MMSI: 211293610.

Date/timePositionNaut miles runAvg speedWind from/ knotsBaromVisibWave heightAir tempDewpointWater temp
2016-Jun-27 16:31N 37°42' E 023°28'0 0.0
2016-Jun-27 15:25N 37°42' E 023°28'0 0.0
2016-Jun-27 14:25N 37°42' E 023°28'0 0.0
2016-Jun-27 12:19N 37°42' E 023°28'0 0.0
2016-Jun-27 11:28N 37°42' E 023°28'2 1.8
2016-Jun-27 10:34N 37°40' E 023°28'7 7.2
2016-Jun-27 09:33N 37°44' E 023°36'8 7.5
2016-Jun-27 08:33N 37°47' E 023°45'3 3.4
2016-Jun-27 07:33N 37°49' E 023°48'0 0.0
2016-Jun-27 06:33N 37°49' E 023°48'0 0.0
2016-Jun-27 05:33N 37°49' E 023°48'0 0.0
2016-Jun-27 04:33N 37°49' E 023°48'0 0.0
2016-Jun-27 03:33N 37°49' E 023°48'0 0.0
2016-Jun-27 02:33N 37°49' E 023°48'0 0.0
2016-Jun-27 01:33N 37°49' E 023°48'0 0.0
2016-Jun-27 00:33N 37°49' E 023°48'0 0.0
2016-Jun-26 23:33N 37°49' E 023°48'0 0.0
2016-Jun-26 22:33N 37°49' E 023°48'0 0.0
2016-Jun-26 21:33N 37°49' E 023°48'0 0.0
2016-Jun-26 20:33N 37°49' E 023°48'0 0.0
2016-Jun-26 19:33N 37°49' E 023°48'0 0.0
2016-Jun-26 18:30N 37°49' E 023°48'0 0.0
2016-Jun-26 17:33N 37°49' E 023°48'0 0.0
2016-Jun-26 16:33N 37°49' E 023°48'0 0.0
2016-Jun-26 15:33N 37°49' E 023°48'0 0.0
2016-Jun-26 14:33N 37°49' E 023°48'0 0.0
2016-Jun-26 13:33N 37°49' E 023°48'0 0.0
2016-Jun-26 12:33N 37°49' E 023°48'0 0.0
2016-Jun-26 11:30N 37°49' E 023°48'0 0.0
2016-Jun-26 10:33N 37°49' E 023°48'0 0.0
2016-Jun-26 09:33N 37°49' E 023°48'0 0.0
2016-Jun-26 08:33N 37°49' E 023°48'0 0.0
2016-Jun-26 07:33N 37°49' E 023°48'0 0.0
2016-Jun-26 06:33N 37°49' E 023°48'0 0.0
2016-Jun-26 05:30N 37°49' E 023°48'0 0.0
2016-Jun-26 04:33N 37°49' E 023°48'0 0.0
2016-Jun-26 03:30N 37°49' E 023°48'0 0.0
2016-Jun-26 02:33N 37°49' E 023°48'0 0.0
2016-Jun-26 01:33N 37°49' E 023°48'0 0.0
2016-Jun-26 00:33N 37°49' E 023°48'0 0.0
2016-Jun-25 23:33N 37°49' E 023°48'0 0.0
2016-Jun-25 22:33N 37°49' E 023°48'0 0.0
2016-Jun-25 21:33N 37°49' E 023°48'0 0.0
2016-Jun-25 20:33N 37°49' E 023°48'0 0.0
2016-Jun-25 19:33N 37°49' E 023°48'0 0.0
2016-Jun-25 18:33N 37°49' E 023°48'0 0.0
2016-Jun-25 17:33N 37°49' E 023°48'0 0.0
2016-Jun-25 16:33N 37°49' E 023°48'0 0.0
2016-Jun-25 15:33N 37°49' E 023°48'0 0.0
2016-Jun-25 14:33N 37°49' E 023°48'0 0.0
2016-Jun-25 13:33N 37°49' E 023°48'0 0.0
2016-Jun-25 12:33N 37°49' E 023°48'0 0.0
2016-Jun-25 11:34N 37°49' E 023°48'5 4.6
2016-Jun-25 10:34N 37°50' E 023°43'8 8.2
2016-Jun-25 09:34N 37°56' E 023°36'2 1.8
2016-Jun-25 08:32N 37°58' E 023°34'0 0.0
2016-Jun-25 07:31N 37°58' E 023°34'0 0.0
2016-Jun-25 06:31N 37°58' E 023°34'0 0.0
2016-Jun-25 05:31N 37°58' E 023°34'0 0.0
2016-Jun-25 04:31N 37°58' E 023°34'0 0.0
2016-Jun-25 03:31N 37°58' E 023°34'0 0.0
2016-Jun-25 02:31N 37°58' E 023°34'0 0.0
2016-Jun-25 01:31N 37°58' E 023°34'0 0.0
2016-Jun-25 00:31N 37°58' E 023°34'0 0.0
2016-Jun-24 23:31N 37°58' E 023°34'0 0.0
2016-Jun-24 22:31N 37°58' E 023°34'0 0.0
2016-Jun-24 21:31N 37°58' E 023°34'0 0.0
2016-Jun-24 20:31N 37°58' E 023°34'0 0.0
2016-Jun-24 19:31N 37°58' E 023°34'0 0.0
2016-Jun-24 18:31N 37°58' E 023°34'0 0.0
2016-Jun-24 17:31N 37°58' E 023°34'0 0.0
2016-Jun-24 16:31N 37°58' E 023°34'0 0.0
2016-Jun-24 15:31N 37°58' E 023°34'0 0.0
2016-Jun-24 14:31N 37°58' E 023°34'0 0.0
2016-Jun-24 13:31N 37°58' E 023°34'0 0.0
2016-Jun-24 12:31N 37°58' E 023°34'0 0.2
2016-Jun-24 11:31N 37°57' E 023°34'0 0.0
2016-Jun-24 10:31N 37°57' E 023°34'0 0.0
2016-Jun-24 09:31N 37°57' E 023°34'0 0.0
2016-Jun-24 08:31N 37°57' E 023°34'0 0.0
2016-Jun-24 07:31N 37°57' E 023°34'0 0.0
2016-Jun-24 04:31N 37°57' E 023°34'0 0.0
2016-Jun-24 03:32N 37°57' E 023°34'0 0.0
2016-Jun-24 02:31N 37°57' E 023°34'0 0.0
2016-Jun-24 01:31N 37°57' E 023°34'0 0.0
2016-Jun-24 00:31N 37°57' E 023°34'0 0.0
2016-Jun-23 23:32N 37°57' E 023°34'0 0.0
2016-Jun-23 22:28N 37°57' E 023°34'0 0.0
2016-Jun-23 21:31N 37°57' E 023°34'0 0.0
2016-Jun-23 20:28N 37°57' E 023°34'0 0.0
2016-Jun-23 19:31N 37°57' E 023°34'0 0.0
2016-Jun-23 18:31N 37°57' E 023°34'0 0.0
2016-Jun-23 17:31N 37°57' E 023°34'0 0.0
2016-Jun-23 16:32N 37°57' E 023°34'0 0.0
2016-Jun-23 15:31N 37°57' E 023°34'0 0.0
2016-Jun-23 14:31N 37°57' E 023°34'0 0.0
2016-Jun-23 13:31N 37°57' E 023°34'0 0.0
2016-Jun-23 12:31N 37°57' E 023°34'0 0.0
2016-Jun-23 11:31N 37°57' E 023°34'0 0.0
2016-Jun-23 10:31N 37°57' E 023°34'0 0.0
2016-Jun-23 09:31N 37°57' E 023°34'0 0.0
2016-Jun-23 08:31N 37°57' E 023°34'0 0.0
2016-Jun-23 07:31N 37°57' E 023°34'0 0.0
2016-Jun-23 05:31N 37°57' E 023°34'0 0.0
2016-Jun-23 04:31N 37°57' E 023°34'0 0.0
2016-Jun-23 03:31N 37°57' E 023°34'0 0.0
2016-Jun-23 02:31N 37°57' E 023°34'0 0.0
2016-Jun-23 01:31N 37°57' E 023°34'0 0.0
2016-Jun-23 00:31N 37°57' E 023°34'0 0.0
2016-Jun-22 23:31N 37°57' E 023°34'0 0.0
2016-Jun-22 22:31N 37°57' E 023°34'0 0.0
2016-Jun-22 21:31N 37°57' E 023°34'0 0.0
2016-Jun-22 20:31N 37°57' E 023°34'0 0.0
2016-Jun-22 19:31N 37°57' E 023°34'0 0.0
2016-Jun-22 18:31N 37°57' E 023°34'0 0.0
2016-Jun-22 17:32N 37°57' E 023°34'0 0.0
2016-Jun-22 16:31N 37°57' E 023°34'0 0.0
2016-Jun-22 15:31N 37°57' E 023°34'0 0.0
2016-Jun-22 14:31N 37°57' E 023°34'0 0.0
2016-Jun-22 13:31N 37°57' E 023°34'0 0.0
2016-Jun-22 12:31N 37°57' E 023°34'0 0.0
2016-Jun-22 11:31N 37°57' E 023°34'0 0.0
2016-Jun-22 10:31N 37°57' E 023°34'0 0.0
2016-Jun-22 09:31N 37°57' E 023°34'0 0.0
2016-Jun-22 08:28N 37°57' E 023°34'0 0.0
2016-Jun-22 07:31N 37°57' E 023°34'0 0.0
2016-Jun-22 06:31N 37°57' E 023°34'0 0.0
2016-Jun-22 05:31N 37°57' E 023°34'0 0.0
2016-Jun-22 04:31N 37°57' E 023°34'0 0.2
2016-Jun-22 03:31N 37°58' E 023°34'0 0.0
2016-Jun-22 02:31N 37°58' E 023°34'0 0.0
2016-Jun-22 01:31N 37°58' E 023°34'0 0.0
2016-Jun-22 00:31N 37°58' E 023°34'0 0.0
2016-Jun-21 23:31N 37°58' E 023°34'0 0.0
2016-Jun-21 22:31N 37°58' E 023°34'0 0.0
2016-Jun-21 21:31N 37°58' E 023°34'0 0.0
2016-Jun-21 20:31N 37°58' E 023°34'0 0.0
2016-Jun-21 19:31N 37°58' E 023°34'0 0.0
2016-Jun-21 18:31N 37°58' E 023°34'0 0.0
2016-Jun-21 17:31N 37°58' E 023°34'0 0.0
2016-Jun-21 16:31N 37°58' E 023°34'0 0.0
2016-Jun-21 15:31N 37°58' E 023°34'0 0.0
2016-Jun-21 14:31N 37°58' E 023°34'0 0.2
2016-Jun-21 13:33N 37°57' E 023°34'0 0.0
2016-Jun-21 12:33N 37°57' E 023°34'0 0.0
2016-Jun-21 11:33N 37°57' E 023°34'0 0.0
2016-Jun-21 10:33N 37°57' E 023°34'0 0.0
2016-Jun-21 09:33N 37°57' E 023°34'0 0.2
2016-Jun-21 08:33N 37°58' E 023°34'0 0.0
2016-Jun-21 07:33N 37°58' E 023°34'0 0.0
2016-Jun-21 06:33N 37°58' E 023°34'0 0.0
2016-Jun-21 04:33N 37°58' E 023°34'0 0.0
2016-Jun-21 03:33N 37°58' E 023°34'0 0.0
2016-Jun-21 02:33N 37°58' E 023°34'0 0.0
2016-Jun-21 01:33N 37°58' E 023°34'0 0.0
2016-Jun-21 00:33N 37°58' E 023°34'0 0.0
2016-Jun-20 23:33N 37°58' E 023°34'0 0.0
2016-Jun-20 22:33N 37°58' E 023°34'0 0.0
2016-Jun-20 21:33N 37°58' E 023°34'0 0.0
2016-Jun-20 20:33N 37°58' E 023°34'0 0.0
2016-Jun-20 19:33N 37°58' E 023°34'0 0.0
2016-Jun-20 18:33N 37°58' E 023°34'0 0.0
2016-Jun-20 17:33N 37°58' E 023°34'0 0.0
2016-Jun-20 16:33N 37°58' E 023°34'0 0.0
2016-Jun-20 15:33N 37°58' E 023°34'0 0.0
2016-Jun-20 14:33N 37°58' E 023°34'0 0.0
2016-Jun-20 13:33N 37°58' E 023°34'0 0.0
2016-Jun-20 12:33N 37°58' E 023°34'0 0.0
2016-Jun-20 11:30N 37°58' E 023°34'0 0.0
2016-Jun-20 10:33N 37°58' E 023°34'0 0.0
2016-Jun-20 09:33N 37°58' E 023°34'0 0.0
2016-Jun-20 08:30N 37°58' E 023°34'0 0.0
2016-Jun-20 07:30N 37°58' E 023°34'0 0.0
2016-Jun-20 06:33N 37°58' E 023°34'0 0.2
2016-Jun-20 05:33N 37°57' E 023°34'0 0.0
2016-Jun-20 04:33N 37°57' E 023°34'0 0.0
2016-Jun-20 03:33N 37°57' E 023°34'0 0.0
2016-Jun-20 02:33N 37°57' E 023°34'0 0.0
2016-Jun-20 01:33N 37°57' E 023°34'0 0.0
2016-Jun-20 00:33N 37°57' E 023°34'0 0.0
2016-Jun-19 23:33N 37°57' E 023°34'0 0.0
2016-Jun-19 22:33N 37°57' E 023°34'0 0.0
2016-Jun-19 21:33N 37°57' E 023°34'0 0.0
2016-Jun-19 20:33N 37°57' E 023°34'0 0.0
2016-Jun-19 19:33N 37°57' E 023°34'0 0.0
2016-Jun-19 18:33N 37°57' E 023°34'0 0.0
2016-Jun-19 17:33N 37°57' E 023°34'0 0.0
2016-Jun-19 16:33N 37°57' E 023°34'0 0.0
2016-Jun-19 15:33N 37°57' E 023°34'0 0.0
2016-Jun-19 14:33N 37°57' E 023°34'0 0.0
2016-Jun-19 13:33N 37°57' E 023°34'0 0.0
2016-Jun-19 12:33N 37°57' E 023°34'0 0.0
2016-Jun-19 11:33N 37°57' E 023°34'0 0.0
2016-Jun-19 10:33N 37°57' E 023°34'0 0.0
2016-Jun-19 09:33N 37°57' E 023°34'0 0.0
2016-Jun-19 08:33N 37°57' E 023°34'0 0.0
2016-Jun-19 07:33N 37°57' E 023°34'0 0.0
2016-Jun-19 06:33N 37°57' E 023°34'0 0.0
2016-Jun-19 05:33N 37°57' E 023°34'0 0.0
2016-Jun-19 04:33N 37°57' E 023°34'0 0.0
2016-Jun-19 03:33N 37°57' E 023°34'0 0.0
2016-Jun-19 02:33N 37°57' E 023°34'0 0.0
2016-Jun-19 01:33N 37°57' E 023°34'0 0.0
2016-Jun-19 00:33N 37°57' E 023°34'0 0.0
2016-Jun-18 23:33N 37°57' E 023°34'0 0.0
2016-Jun-18 22:33N 37°57' E 023°34'0 0.0
2016-Jun-18 21:33N 37°57' E 023°34'0 0.0
2016-Jun-18 20:33N 37°57' E 023°34'0 0.0
2016-Jun-18 19:33N 37°57' E 023°34'0 0.0
2016-Jun-18 18:33N 37°57' E 023°34'0 0.0
2016-Jun-18 17:33N 37°57' E 023°34'0 0.0
2016-Jun-18 16:33N 37°57' E 023°34'0 0.0
2016-Jun-18 15:33N 37°57' E 023°34'0 0.0
2016-Jun-18 14:33N 37°57' E 023°34'0 0.0
2016-Jun-18 13:33N 37°57' E 023°34'0 0.0
2016-Jun-18 12:33N 37°57' E 023°34'0 0.0
2016-Jun-18 11:33N 37°57' E 023°34'0 0.0
2016-Jun-18 10:33N 37°57' E 023°34'2 2.5
2016-Jun-18 09:34N 37°55' E 023°33'8 7.5
2016-Jun-18 08:33N 37°53' E 023°24'8 7.9
2016-Jun-18 07:33N 37°53' E 023°14'8 8.0
2016-Jun-18 06:33N 37°54' E 023°04'3 1.3
2016-Jun-18 04:26N 37°55' E 023°01'0 0.0
2016-Jun-18 03:32N 37°55' E 023°01'0 0.0
2016-Jun-18 02:32N 37°55' E 023°01'0 0.0
2016-Jun-18 01:32N 37°55' E 023°01'0 0.0
2016-Jun-18 00:29N 37°55' E 023°01'0 0.0
2016-Jun-17 23:29N 37°55' E 023°01'0 0.0
2016-Jun-17 22:32N 37°55' E 023°01'0 0.0
2016-Jun-17 21:23N 37°55' E 023°01'0 0.0
2016-Jun-17 20:29N 37°55' E 023°01'0 0.0
2016-Jun-17 19:32N 37°55' E 023°01'0 0.0
2016-Jun-17 18:26N 37°55' E 023°01'0 0.0
2016-Jun-17 17:17N 37°55' E 023°01'0 0.0
2016-Jun-17 16:32N 37°55' E 023°01'  
Track history (hours):
 
Tides and Currents Weather Stations Pressure Air Temp Water Temp Dewpoint Dewpoint Depression Visibility Wind Speed Wind Dir Waves Ship Positions

Explorer

Last reported at 2016-Jun-27 16:31 UTC. Time now 2016-Jun-27 16:51 UTC.
Position N 37°42' E 023°28'.

Length 41 m; draft 3 m.

Type: Pleasure craft. MMSI: 211293610.

Date/timePositionNaut miles runAvg speedWind from/ knotsBaromVisibWave heightAir tempDewpointWater temp
2016-Jun-27 16:31N 37°42' E 023°28'0 0.0
2016-Jun-27 15:25N 37°42' E 023°28'0 0.0
2016-Jun-27 14:25N 37°42' E 023°28'0 0.0
2016-Jun-27 12:19N 37°42' E 023°28'0 0.0
2016-Jun-27 11:28N 37°42' E 023°28'2 1.8
2016-Jun-27 10:34N 37°40' E 023°28'7 7.2
2016-Jun-27 09:33N 37°44' E 023°36'8 7.5
2016-Jun-27 08:33N 37°47' E 023°45'3 3.4
2016-Jun-27 07:33N 37°49' E 023°48'0 0.0
2016-Jun-27 06:33N 37°49' E 023°48'0 0.0
2016-Jun-27 05:33N 37°49' E 023°48'0 0.0
2016-Jun-27 04:33N 37°49' E 023°48'0 0.0
2016-Jun-27 03:33N 37°49' E 023°48'0 0.0
2016-Jun-27 02:33N 37°49' E 023°48'0 0.0
2016-Jun-27 01:33N 37°49' E 023°48'0 0.0
2016-Jun-27 00:33N 37°49' E 023°48'0 0.0
2016-Jun-26 23:33N 37°49' E 023°48'0 0.0
2016-Jun-26 22:33N 37°49' E 023°48'0 0.0
2016-Jun-26 21:33N 37°49' E 023°48'0 0.0
2016-Jun-26 20:33N 37°49' E 023°48'0 0.0
2016-Jun-26 19:33N 37°49' E 023°48'0 0.0
2016-Jun-26 18:30N 37°49' E 023°48'0 0.0
2016-Jun-26 17:33N 37°49' E 023°48'0 0.0
2016-Jun-26 16:33N 37°49' E 023°48'0 0.0
2016-Jun-26 15:33N 37°49' E 023°48'0 0.0
2016-Jun-26 14:33N 37°49' E 023°48'0 0.0
2016-Jun-26 13:33N 37°49' E 023°48'0 0.0
2016-Jun-26 12:33N 37°49' E 023°48'0 0.0
2016-Jun-26 11:30N 37°49' E 023°48'0 0.0
2016-Jun-26 10:33N 37°49' E 023°48'0 0.0
2016-Jun-26 09:33N 37°49' E 023°48'0 0.0
2016-Jun-26 08:33N 37°49' E 023°48'0 0.0
2016-Jun-26 07:33N 37°49' E 023°48'0 0.0
2016-Jun-26 06:33N 37°49' E 023°48'0 0.0
2016-Jun-26 05:30N 37°49' E 023°48'0 0.0
2016-Jun-26 04:33N 37°49' E 023°48'0 0.0
2016-Jun-26 03:30N 37°49' E 023°48'0 0.0
2016-Jun-26 02:33N 37°49' E 023°48'0 0.0
2016-Jun-26 01:33N 37°49' E 023°48'0 0.0
2016-Jun-26 00:33N 37°49' E 023°48'0 0.0
2016-Jun-25 23:33N 37°49' E 023°48'0 0.0
2016-Jun-25 22:33N 37°49' E 023°48'0 0.0
2016-Jun-25 21:33N 37°49' E 023°48'0 0.0
2016-Jun-25 20:33N 37°49' E 023°48'0 0.0
2016-Jun-25 19:33N 37°49' E 023°48'0 0.0
2016-Jun-25 18:33N 37°49' E 023°48'0 0.0
2016-Jun-25 17:33N 37°49' E 023°48'0 0.0
2016-Jun-25 16:33N 37°49' E 023°48'0 0.0
2016-Jun-25 15:33N 37°49' E 023°48'0 0.0
2016-Jun-25 14:33N 37°49' E 023°48'0 0.0
2016-Jun-25 13:33N 37°49' E 023°48'0 0.0
2016-Jun-25 12:33N 37°49' E 023°48'0 0.0
2016-Jun-25 11:34N 37°49' E 023°48'5 4.6
2016-Jun-25 10:34N 37°50' E 023°43'8 8.2
2016-Jun-25 09:34N 37°56' E 023°36'2 1.8
2016-Jun-25 08:32N 37°58' E 023°34'0 0.0
2016-Jun-25 07:31N 37°58' E 023°34'0 0.0
2016-Jun-25 06:31N 37°58' E 023°34'0 0.0
2016-Jun-25 05:31N 37°58' E 023°34'0 0.0
2016-Jun-25 04:31N 37°58' E 023°34'0 0.0
2016-Jun-25 03:31N 37°58' E 023°34'0 0.0
2016-Jun-25 02:31N 37°58' E 023°34'0 0.0
2016-Jun-25 01:31N 37°58' E 023°34'0 0.0
2016-Jun-25 00:31N 37°58' E 023°34'0 0.0
2016-Jun-24 23:31N 37°58' E 023°34'0 0.0
2016-Jun-24 22:31N 37°58' E 023°34'0 0.0
2016-Jun-24 21:31N 37°58' E 023°34'0 0.0
2016-Jun-24 20:31N 37°58' E 023°34'0 0.0
2016-Jun-24 19:31N 37°58' E 023°34'0 0.0
2016-Jun-24 18:31N 37°58' E 023°34'0 0.0
2016-Jun-24 17:31N 37°58' E 023°34'0 0.0
2016-Jun-24 16:31N 37°58' E 023°34'0 0.0
2016-Jun-24 15:31N 37°58' E 023°34'0 0.0
2016-Jun-24 14:31N 37°58' E 023°34'0 0.0
2016-Jun-24 13:31N 37°58' E 023°34'0 0.0
2016-Jun-24 12:31N 37°58' E 023°34'0 0.2
2016-Jun-24 11:31N 37°57' E 023°34'0 0.0
2016-Jun-24 10:31N 37°57' E 023°34'0 0.0
2016-Jun-24 09:31N 37°57' E 023°34'0 0.0
2016-Jun-24 08:31N 37°57' E 023°34'0 0.0
2016-Jun-24 07:31N 37°57' E 023°34'0 0.0
2016-Jun-24 04:31N 37°57' E 023°34'0 0.0
2016-Jun-24 03:32N 37°57' E 023°34'0 0.0
2016-Jun-24 02:31N 37°57' E 023°34'0 0.0
2016-Jun-24 01:31N 37°57' E 023°34'0 0.0
2016-Jun-24 00:31N 37°57' E 023°34'0 0.0
2016-Jun-23 23:32N 37°57' E 023°34'0 0.0
2016-Jun-23 22:28N 37°57' E 023°34'0 0.0
2016-Jun-23 21:31N 37°57' E 023°34'0 0.0
2016-Jun-23 20:28N 37°57' E 023°34'0 0.0
2016-Jun-23 19:31N 37°57' E 023°34'0 0.0
2016-Jun-23 18:31N 37°57' E 023°34'0 0.0
2016-Jun-23 17:31N 37°57' E 023°34'0 0.0
2016-Jun-23 16:32N 37°57' E 023°34'0 0.0
2016-Jun-23 15:31N 37°57' E 023°34'0 0.0
2016-Jun-23 14:31N 37°57' E 023°34'0 0.0
2016-Jun-23 13:31N 37°57' E 023°34'0 0.0
2016-Jun-23 12:31N 37°57' E 023°34'0 0.0
2016-Jun-23 11:31N 37°57' E 023°34'0 0.0
2016-Jun-23 10:31N 37°57' E 023°34'0 0.0
2016-Jun-23 09:31N 37°57' E 023°34'0 0.0
2016-Jun-23 08:31N 37°57' E 023°34'0 0.0
2016-Jun-23 07:31N 37°57' E 023°34'0 0.0
2016-Jun-23 05:31N 37°57' E 023°34'0 0.0
2016-Jun-23 04:31N 37°57' E 023°34'0 0.0
2016-Jun-23 03:31N 37°57' E 023°34'0 0.0
2016-Jun-23 02:31N 37°57' E 023°34'0 0.0
2016-Jun-23 01:31N 37°57' E 023°34'0 0.0
2016-Jun-23 00:31N 37°57' E 023°34'0 0.0
2016-Jun-22 23:31N 37°57' E 023°34'0 0.0
2016-Jun-22 22:31N 37°57' E 023°34'0 0.0
2016-Jun-22 21:31N 37°57' E 023°34'0 0.0
2016-Jun-22 20:31N 37°57' E 023°34'0 0.0
2016-Jun-22 19:31N 37°57' E 023°34'0 0.0
2016-Jun-22 18:31N 37°57' E 023°34'0 0.0
2016-Jun-22 17:32N 37°57' E 023°34'0 0.0
2016-Jun-22 16:31N 37°57' E 023°34'0 0.0
2016-Jun-22 15:31N 37°57' E 023°34'0 0.0
2016-Jun-22 14:31N 37°57' E 023°34'0 0.0
2016-Jun-22 13:31N 37°57' E 023°34'0 0.0
2016-Jun-22 12:31N 37°57' E 023°34'0 0.0
2016-Jun-22 11:31N 37°57' E 023°34'0 0.0
2016-Jun-22 10:31N 37°57' E 023°34'0 0.0
2016-Jun-22 09:31N 37°57' E 023°34'0 0.0
2016-Jun-22 08:28N 37°57' E 023°34'0 0.0
2016-Jun-22 07:31N 37°57' E 023°34'0 0.0
2016-Jun-22 06:31N 37°57' E 023°34'0 0.0
2016-Jun-22 05:31N 37°57' E 023°34'0 0.0
2016-Jun-22 04:31N 37°57' E 023°34'0 0.2
2016-Jun-22 03:31N 37°58' E 023°34'0 0.0
2016-Jun-22 02:31N 37°58' E 023°34'0 0.0
2016-Jun-22 01:31N 37°58' E 023°34'0 0.0
2016-Jun-22 00:31N 37°58' E 023°34'0 0.0
2016-Jun-21 23:31N 37°58' E 023°34'0 0.0
2016-Jun-21 22:31N 37°58' E 023°34'0 0.0
2016-Jun-21 21:31N 37°58' E 023°34'0 0.0
2016-Jun-21 20:31N 37°58' E 023°34'0 0.0
2016-Jun-21 19:31N 37°58' E 023°34'0 0.0
2016-Jun-21 18:31N 37°58' E 023°34'0 0.0
2016-Jun-21 17:31N 37°58' E 023°34'0 0.0
2016-Jun-21 16:31N 37°58' E 023°34'0 0.0
2016-Jun-21 15:31N 37°58' E 023°34'0 0.0
2016-Jun-21 14:31N 37°58' E 023°34'0 0.2
2016-Jun-21 13:33N 37°57' E 023°34'0 0.0
2016-Jun-21 12:33N 37°57' E 023°34'0 0.0
2016-Jun-21 11:33N 37°57' E 023°34'0 0.0
2016-Jun-21 10:33N 37°57' E 023°34'0 0.0
2016-Jun-21 09:33N 37°57' E 023°34'0 0.2
2016-Jun-21 08:33N 37°58' E 023°34'0 0.0
2016-Jun-21 07:33N 37°58' E 023°34'0 0.0
2016-Jun-21 06:33N 37°58' E 023°34'0 0.0
2016-Jun-21 04:33N 37°58' E 023°34'0 0.0
2016-Jun-21 03:33N 37°58' E 023°34'0 0.0
2016-Jun-21 02:33N 37°58' E 023°34'0 0.0
2016-Jun-21 01:33N 37°58' E 023°34'0 0.0
2016-Jun-21 00:33N 37°58' E 023°34'0 0.0
2016-Jun-20 23:33N 37°58' E 023°34'0 0.0
2016-Jun-20 22:33N 37°58' E 023°34'0 0.0
2016-Jun-20 21:33N 37°58' E 023°34'0 0.0
2016-Jun-20 20:33N 37°58' E 023°34'0 0.0
2016-Jun-20 19:33N 37°58' E 023°34'0 0.0
2016-Jun-20 18:33N 37°58' E 023°34'0 0.0
2016-Jun-20 17:33N 37°58' E 023°34'0 0.0
2016-Jun-20 16:33N 37°58' E 023°34'0 0.0
2016-Jun-20 15:33N 37°58' E 023°34'0 0.0
2016-Jun-20 14:33N 37°58' E 023°34'0 0.0
2016-Jun-20 13:33N 37°58' E 023°34'0 0.0
2016-Jun-20 12:33N 37°58' E 023°34'0 0.0
2016-Jun-20 11:30N 37°58' E 023°34'0 0.0
2016-Jun-20 10:33N 37°58' E 023°34'0 0.0
2016-Jun-20 09:33N 37°58' E 023°34'0 0.0
2016-Jun-20 08:30N 37°58' E 023°34'0 0.0
2016-Jun-20 07:30N 37°58' E 023°34'0 0.0
2016-Jun-20 06:33N 37°58' E 023°34'0 0.2
2016-Jun-20 05:33N 37°57' E 023°34'0 0.0
2016-Jun-20 04:33N 37°57' E 023°34'0 0.0
2016-Jun-20 03:33N 37°57' E 023°34'0 0.0
2016-Jun-20 02:33N 37°57' E 023°34'0 0.0
2016-Jun-20 01:33N 37°57' E 023°34'0 0.0
2016-Jun-20 00:33N 37°57' E 023°34'0 0.0
2016-Jun-19 23:33N 37°57' E 023°34'0 0.0
2016-Jun-19 22:33N 37°57' E 023°34'0 0.0
2016-Jun-19 21:33N 37°57' E 023°34'0 0.0
2016-Jun-19 20:33N 37°57' E 023°34'0 0.0
2016-Jun-19 19:33N 37°57' E 023°34'0 0.0
2016-Jun-19 18:33N 37°57' E 023°34'0 0.0
2016-Jun-19 17:33N 37°57' E 023°34'0 0.0
2016-Jun-19 16:33N 37°57' E 023°34'0 0.0
2016-Jun-19 15:33N 37°57' E 023°34'0 0.0
2016-Jun-19 14:33N 37°57' E 023°34'0 0.0
2016-Jun-19 13:33N 37°57' E 023°34'0 0.0
2016-Jun-19 12:33N 37°57' E 023°34'0 0.0
2016-Jun-19 11:33N 37°57' E 023°34'0 0.0
2016-Jun-19 10:33N 37°57' E 023°34'0 0.0
2016-Jun-19 09:33N 37°57' E 023°34'0 0.0
2016-Jun-19 08:33N 37°57' E 023°34'0 0.0
2016-Jun-19 07:33N 37°57' E 023°34'0 0.0
2016-Jun-19 06:33N 37°57' E 023°34'0 0.0
2016-Jun-19 05:33N 37°57' E 023°34'0 0.0
2016-Jun-19 04:33N 37°57' E 023°34'0 0.0
2016-Jun-19 03:33N 37°57' E 023°34'0 0.0
2016-Jun-19 02:33N 37°57' E 023°34'0 0.0
2016-Jun-19 01:33N 37°57' E 023°34'0 0.0
2016-Jun-19 00:33N 37°57' E 023°34'0 0.0
2016-Jun-18 23:33N 37°57' E 023°34'0 0.0
2016-Jun-18 22:33N 37°57' E 023°34'0 0.0
2016-Jun-18 21:33N 37°57' E 023°34'0 0.0
2016-Jun-18 20:33N 37°57' E 023°34'0 0.0
2016-Jun-18 19:33N 37°57' E 023°34'0 0.0
2016-Jun-18 18:33N 37°57' E 023°34'0 0.0
2016-Jun-18 17:33N 37°57' E 023°34'0 0.0
2016-Jun-18 16:33N 37°57' E 023°34'0 0.0
2016-Jun-18 15:33N 37°57' E 023°34'0 0.0
2016-Jun-18 14:33N 37°57' E 023°34'0 0.0
2016-Jun-18 13:33N 37°57' E 023°34'0 0.0
2016-Jun-18 12:33N 37°57' E 023°34'0 0.0
2016-Jun-18 11:33N 37°57' E 023°34'0 0.0
2016-Jun-18 10:33N 37°57' E 023°34'2 2.5
2016-Jun-18 09:34N 37°55' E 023°33'8 7.5
2016-Jun-18 08:33N 37°53' E 023°24'8 7.9
2016-Jun-18 07:33N 37°53' E 023°14'8 8.0
2016-Jun-18 06:33N 37°54' E 023°04'3 1.3
2016-Jun-18 04:26N 37°55' E 023°01'0 0.0
2016-Jun-18 03:32N 37°55' E 023°01'0 0.0
2016-Jun-18 02:32N 37°55' E 023°01'0 0.0
2016-Jun-18 01:32N 37°55' E 023°01'0 0.0
2016-Jun-18 00:29N 37°55' E 023°01'0 0.0
2016-Jun-17 23:29N 37°55' E 023°01'0 0.0
2016-Jun-17 22:32N 37°55' E 023°01'0 0.0
2016-Jun-17 21:23N 37°55' E 023°01'0 0.0
2016-Jun-17 20:29N 37°55' E 023°01'0 0.0
2016-Jun-17 19:32N 37°55' E 023°01'0 0.0
2016-Jun-17 18:26N 37°55' E 023°01'0 0.0
2016-Jun-17 17:17N 37°55' E 023°01'0 0.0
2016-Jun-17 16:32N 37°55' E 023°01'  

Dump ship's entire track history